sensor_id;sensor_type;location;lat;lon;timestamp;P1;durP1;ratioP1;P2;durP2;ratioP2
22737;SDS011;11536;50.860;4.286;2024-02-28T00:00:29;16.58;;;7.50;;
22737;SDS011;11536;50.860;4.286;2024-02-28T00:02:54;13.98;;;6.95;;
22737;SDS011;11536;50.860;4.286;2024-02-28T00:05:20;14.73;;;7.13;;
22737;SDS011;11536;50.860;4.286;2024-02-28T00:07:45;12.88;;;7.13;;
22737;SDS011;11536;50.860;4.286;2024-02-28T00:10:12;14.80;;;7.72;;
22737;SDS011;11536;50.860;4.286;2024-02-28T00:12:38;13.93;;;7.05;;
22737;SDS011;11536;50.860;4.286;2024-02-28T00:15:04;13.35;;;6.70;;
22737;SDS011;11536;50.860;4.286;2024-02-28T00:17:35;13.00;;;6.15;;
22737;SDS011;11536;50.860;4.286;2024-02-28T00:20:03;15.20;;;6.57;;
22737;SDS011;11536;50.860;4.286;2024-02-28T00:22:29;15.40;;;7.18;;
22737;SDS011;11536;50.860;4.286;2024-02-28T00:24:56;13.52;;;6.85;;
22737;SDS011;11536;50.860;4.286;2024-02-28T00:27:21;12.00;;;6.55;;
22737;SDS011;11536;50.860;4.286;2024-02-28T00:29:47;12.25;;;6.43;;
22737;SDS011;11536;50.860;4.286;2024-02-28T00:32:12;10.88;;;5.65;;
22737;SDS011;11536;50.860;4.286;2024-02-28T00:34:38;14.05;;;6.65;;
22737;SDS011;11536;50.860;4.286;2024-02-28T00:37:04;13.02;;;6.35;;
22737;SDS011;11536;50.860;4.286;2024-02-28T00:39:29;13.85;;;7.55;;
22737;SDS011;11536;50.860;4.286;2024-02-28T00:41:55;11.45;;;6.15;;
22737;SDS011;11536;50.860;4.286;2024-02-28T00:44:20;15.85;;;6.93;;
22737;SDS011;11536;50.860;4.286;2024-02-28T00:46:46;14.77;;;6.90;;
22737;SDS011;11536;50.860;4.286;2024-02-28T00:49:11;15.60;;;6.85;;
22737;SDS011;11536;50.860;4.286;2024-02-28T00:51:37;15.38;;;6.95;;
22737;SDS011;11536;50.860;4.286;2024-02-28T00:54:03;15.93;;;7.82;;
22737;SDS011;11536;50.860;4.286;2024-02-28T00:56:28;13.38;;;6.82;;
22737;SDS011;11536;50.860;4.286;2024-02-28T00:58:55;16.25;;;7.32;;
22737;SDS011;11536;50.860;4.286;2024-02-28T01:01:21;17.33;;;7.90;;
22737;SDS011;11536;50.860;4.286;2024-02-28T01:03:47;14.10;;;7.95;;
22737;SDS011;11536;50.860;4.286;2024-02-28T01:06:13;15.23;;;7.78;;
22737;SDS011;11536;50.860;4.286;2024-02-28T01:08:39;18.25;;;7.60;;
22737;SDS011;11536;50.860;4.286;2024-02-28T01:11:05;14.75;;;7.43;;
22737;SDS011;11536;50.860;4.286;2024-02-28T01:13:31;13.70;;;7.82;;
22737;SDS011;11536;50.860;4.286;2024-02-28T01:15:56;14.35;;;7.13;;
22737;SDS011;11536;50.860;4.286;2024-02-28T01:18:24;18.48;;;8.10;;
22737;SDS011;11536;50.860;4.286;2024-02-28T01:20:49;17.65;;;8.15;;
22737;SDS011;11536;50.860;4.286;2024-02-28T01:23:16;16.23;;;8.55;;
22737;SDS011;11536;50.860;4.286;2024-02-28T01:25:42;16.65;;;8.40;;
22737;SDS011;11536;50.860;4.286;2024-02-28T01:28:07;15.73;;;8.18;;
22737;SDS011;11536;50.860;4.286;2024-02-28T01:30:33;15.57;;;8.68;;
22737;SDS011;11536;50.860;4.286;2024-02-28T01:32:58;16.48;;;8.38;;
22737;SDS011;11536;50.860;4.286;2024-02-28T01:35:24;15.88;;;8.15;;
22737;SDS011;11536;50.860;4.286;2024-02-28T01:37:50;17.55;;;8.70;;
22737;SDS011;11536;50.860;4.286;2024-02-28T01:40:15;18.20;;;8.60;;
22737;SDS011;11536;50.860;4.286;2024-02-28T01:42:41;15.50;;;7.45;;
22737;SDS011;11536;50.860;4.286;2024-02-28T01:45:07;14.25;;;7.40;;
22737;SDS011;11536;50.860;4.286;2024-02-28T01:47:37;15.80;;;7.82;;
22737;SDS011;11536;50.860;4.286;2024-02-28T01:50:04;15.65;;;8.68;;
22737;SDS011;11536;50.860;4.286;2024-02-28T01:52:30;14.23;;;8.20;;
22737;SDS011;11536;50.860;4.286;2024-02-28T01:54:55;15.60;;;8.57;;
22737;SDS011;11536;50.860;4.286;2024-02-28T01:57:21;17.35;;;8.00;;
22737;SDS011;11536;50.860;4.286;2024-02-28T01:59:47;16.17;;;8.30;;
22737;SDS011;11536;50.860;4.286;2024-02-28T02:02:13;17.25;;;7.82;;
22737;SDS011;11536;50.860;4.286;2024-02-28T02:04:39;17.30;;;7.60;;
22737;SDS011;11536;50.860;4.286;2024-02-28T02:07:05;17.13;;;8.05;;
22737;SDS011;11536;50.860;4.286;2024-02-28T02:09:32;11.48;;;6.82;;
22737;SDS011;11536;50.860;4.286;2024-02-28T02:11:59;17.52;;;7.25;;
22737;SDS011;11536;50.860;4.286;2024-02-28T02:14:25;15.57;;;7.15;;
22737;SDS011;11536;50.860;4.286;2024-02-28T02:16:50;16.70;;;7.45;;
22737;SDS011;11536;50.860;4.286;2024-02-28T02:19:16;15.20;;;6.95;;
22737;SDS011;11536;50.860;4.286;2024-02-28T02:21:43;14.07;;;7.55;;
22737;SDS011;11536;50.860;4.286;2024-02-28T02:24:17;14.23;;;6.63;;
22737;SDS011;11536;50.860;4.286;2024-02-28T02:26:42;13.32;;;6.75;;
22737;SDS011;11536;50.860;4.286;2024-02-28T02:29:10;13.88;;;7.28;;
22737;SDS011;11536;50.860;4.286;2024-02-28T02:31:36;14.60;;;7.07;;
22737;SDS011;11536;50.860;4.286;2024-02-28T02:34:02;15.95;;;7.45;;
22737;SDS011;11536;50.860;4.286;2024-02-28T02:36:27;13.23;;;7.15;;
22737;SDS011;11536;50.860;4.286;2024-02-28T02:38:53;18.50;;;7.10;;
22737;SDS011;11536;50.860;4.286;2024-02-28T02:41:18;13.65;;;7.72;;
22737;SDS011;11536;50.860;4.286;2024-02-28T02:43:44;14.82;;;7.28;;
22737;SDS011;11536;50.860;4.286;2024-02-28T02:46:09;16.20;;;8.15;;
22737;SDS011;11536;50.860;4.286;2024-02-28T02:48:35;15.63;;;7.80;;
22737;SDS011;11536;50.860;4.286;2024-02-28T02:51:01;19.80;;;8.82;;
22737;SDS011;11536;50.860;4.286;2024-02-28T02:53:27;15.48;;;7.72;;
22737;SDS011;11536;50.860;4.286;2024-02-28T02:55:52;16.70;;;8.45;;
22737;SDS011;11536;50.860;4.286;2024-02-28T02:58:19;18.40;;;8.60;;
22737;SDS011;11536;50.860;4.286;2024-02-28T03:00:44;17.67;;;8.32;;
22737;SDS011;11536;50.860;4.286;2024-02-28T03:03:10;20.25;;;8.90;;
22737;SDS011;11536;50.860;4.286;2024-02-28T03:05:36;17.20;;;8.45;;
22737;SDS011;11536;50.860;4.286;2024-02-28T03:08:01;16.35;;;8.13;;
22737;SDS011;11536;50.860;4.286;2024-02-28T03:10:27;19.67;;;8.20;;
22737;SDS011;11536;50.860;4.286;2024-02-28T03:12:53;17.52;;;8.43;;
22737;SDS011;11536;50.860;4.286;2024-02-28T03:15:19;18.65;;;8.75;;
22737;SDS011;11536;50.860;4.286;2024-02-28T03:17:45;15.77;;;8.85;;
22737;SDS011;11536;50.860;4.286;2024-02-28T03:20:11;15.93;;;8.38;;
22737;SDS011;11536;50.860;4.286;2024-02-28T03:22:39;17.15;;;8.55;;
22737;SDS011;11536;50.860;4.286;2024-02-28T03:25:05;15.25;;;7.82;;
22737;SDS011;11536;50.860;4.286;2024-02-28T03:27:31;17.48;;;8.30;;
22737;SDS011;11536;50.860;4.286;2024-02-28T03:29:57;17.23;;;8.48;;
22737;SDS011;11536;50.860;4.286;2024-02-28T03:32:23;19.85;;;8.23;;
22737;SDS011;11536;50.860;4.286;2024-02-28T03:34:48;17.55;;;9.02;;
22737;SDS011;11536;50.860;4.286;2024-02-28T03:37:14;15.63;;;7.65;;
22737;SDS011;11536;50.860;4.286;2024-02-28T03:39:40;17.80;;;8.65;;
22737;SDS011;11536;50.860;4.286;2024-02-28T03:42:05;15.45;;;7.70;;
22737;SDS011;11536;50.860;4.286;2024-02-28T03:44:31;17.92;;;8.55;;
22737;SDS011;11536;50.860;4.286;2024-02-28T03:46:57;18.25;;;8.80;;
22737;SDS011;11536;50.860;4.286;2024-02-28T03:49:22;17.30;;;8.90;;
22737;SDS011;11536;50.860;4.286;2024-02-28T03:51:48;18.02;;;8.27;;
22737;SDS011;11536;50.860;4.286;2024-02-28T03:54:13;17.75;;;8.98;;
22737;SDS011;11536;50.860;4.286;2024-02-28T03:56:39;18.10;;;8.55;;
22737;SDS011;11536;50.860;4.286;2024-02-28T03:59:05;15.05;;;8.20;;
22737;SDS011;11536;50.860;4.286;2024-02-28T04:01:30;18.05;;;8.75;;
22737;SDS011;11536;50.860;4.286;2024-02-28T04:03:56;18.30;;;9.00;;
22737;SDS011;11536;50.860;4.286;2024-02-28T04:06:22;15.52;;;8.48;;
22737;SDS011;11536;50.860;4.286;2024-02-28T04:08:47;15.88;;;8.05;;
22737;SDS011;11536;50.860;4.286;2024-02-28T04:11:13;19.38;;;9.30;;
22737;SDS011;11536;50.860;4.286;2024-02-28T04:13:39;18.40;;;8.88;;
22737;SDS011;11536;50.860;4.286;2024-02-28T04:16:06;17.35;;;8.68;;
22737;SDS011;11536;50.860;4.286;2024-02-28T04:18:33;20.25;;;8.75;;
22737;SDS011;11536;50.860;4.286;2024-02-28T04:20:58;19.00;;;8.85;;
22737;SDS011;11536;50.860;4.286;2024-02-28T04:23:24;17.55;;;8.38;;
22737;SDS011;11536;50.860;4.286;2024-02-28T04:25:50;19.60;;;8.50;;
22737;SDS011;11536;50.860;4.286;2024-02-28T04:28:15;17.80;;;8.73;;
22737;SDS011;11536;50.860;4.286;2024-02-28T04:30:41;16.45;;;9.13;;
22737;SDS011;11536;50.860;4.286;2024-02-28T04:33:07;20.80;;;9.25;;
22737;SDS011;11536;50.860;4.286;2024-02-28T04:35:32;18.65;;;8.40;;
22737;SDS011;11536;50.860;4.286;2024-02-28T04:37:58;17.83;;;8.63;;
22737;SDS011;11536;50.860;4.286;2024-02-28T04:40:24;18.48;;;8.70;;
22737;SDS011;11536;50.860;4.286;2024-02-28T04:42:50;18.42;;;8.52;;
22737;SDS011;11536;50.860;4.286;2024-02-28T04:45:15;19.85;;;9.43;;
22737;SDS011;11536;50.860;4.286;2024-02-28T04:47:41;17.67;;;8.93;;
22737;SDS011;11536;50.860;4.286;2024-02-28T04:50:07;18.38;;;8.82;;
22737;SDS011;11536;50.860;4.286;2024-02-28T04:52:33;18.95;;;9.45;;
22737;SDS011;11536;50.860;4.286;2024-02-28T04:54:59;20.85;;;9.70;;
22737;SDS011;11536;50.860;4.286;2024-02-28T04:57:25;22.10;;;9.27;;
22737;SDS011;11536;50.860;4.286;2024-02-28T04:59:50;16.35;;;8.65;;
22737;SDS011;11536;50.860;4.286;2024-02-28T05:02:16;23.13;;;9.10;;
22737;SDS011;11536;50.860;4.286;2024-02-28T05:04:42;19.55;;;9.90;;
22737;SDS011;11536;50.860;4.286;2024-02-28T05:07:08;19.73;;;9.32;;
22737;SDS011;11536;50.860;4.286;2024-02-28T05:09:34;19.00;;;9.15;;
22737;SDS011;11536;50.860;4.286;2024-02-28T05:12:00;20.23;;;9.32;;
22737;SDS011;11536;50.860;4.286;2024-02-28T05:14:28;19.23;;;8.35;;
22737;SDS011;11536;50.860;4.286;2024-02-28T05:16:54;17.40;;;9.25;;
22737;SDS011;11536;50.860;4.286;2024-02-28T05:19:20;18.85;;;8.77;;
22737;SDS011;11536;50.860;4.286;2024-02-28T05:21:45;19.27;;;10.02;;
22737;SDS011;11536;50.860;4.286;2024-02-28T05:24:11;18.27;;;9.27;;
22737;SDS011;11536;50.860;4.286;2024-02-28T05:26:37;20.92;;;9.10;;
22737;SDS011;11536;50.860;4.286;2024-02-28T05:29:03;18.98;;;9.10;;
22737;SDS011;11536;50.860;4.286;2024-02-28T05:31:30;20.08;;;9.50;;
22737;SDS011;11536;50.860;4.286;2024-02-28T05:33:59;19.88;;;9.43;;
22737;SDS011;11536;50.860;4.286;2024-02-28T05:36:27;20.42;;;9.70;;
22737;SDS011;11536;50.860;4.286;2024-02-28T05:38:54;21.48;;;9.48;;
22737;SDS011;11536;50.860;4.286;2024-02-28T05:41:20;21.15;;;9.05;;
22737;SDS011;11536;50.860;4.286;2024-02-28T05:43:46;21.63;;;10.18;;
22737;SDS011;11536;50.860;4.286;2024-02-28T05:46:13;22.15;;;9.50;;
22737;SDS011;11536;50.860;4.286;2024-02-28T05:48:45;22.35;;;9.88;;
22737;SDS011;11536;50.860;4.286;2024-02-28T05:51:11;21.10;;;10.25;;
22737;SDS011;11536;50.860;4.286;2024-02-28T05:53:38;21.10;;;10.00;;
22737;SDS011;11536;50.860;4.286;2024-02-28T05:56:04;19.83;;;9.57;;
22737;SDS011;11536;50.860;4.286;2024-02-28T06:01:03;24.98;;;10.73;;
22737;SDS011;11536;50.860;4.286;2024-02-28T06:03:29;18.60;;;9.15;;
22737;SDS011;11536;50.860;4.286;2024-02-28T06:05:55;19.10;;;9.60;;
22737;SDS011;11536;50.860;4.286;2024-02-28T06:08:22;21.13;;;9.52;;
22737;SDS011;11536;50.860;4.286;2024-02-28T06:10:48;22.13;;;10.27;;
22737;SDS011;11536;50.860;4.286;2024-02-28T06:13:13;20.73;;;9.95;;
22737;SDS011;11536;50.860;4.286;2024-02-28T06:15:39;22.75;;;10.05;;
22737;SDS011;11536;50.860;4.286;2024-02-28T06:18:05;20.73;;;10.27;;
22737;SDS011;11536;50.860;4.286;2024-02-28T06:20:30;19.85;;;9.75;;
22737;SDS011;11536;50.860;4.286;2024-02-28T06:22:56;22.45;;;10.77;;
22737;SDS011;11536;50.860;4.286;2024-02-28T06:25:22;24.08;;;10.30;;
22737;SDS011;11536;50.860;4.286;2024-02-28T06:27:48;24.23;;;10.57;;
22737;SDS011;11536;50.860;4.286;2024-02-28T06:30:14;20.13;;;9.63;;
22737;SDS011;11536;50.860;4.286;2024-02-28T06:32:42;21.38;;;9.70;;
22737;SDS011;11536;50.860;4.286;2024-02-28T06:35:08;20.30;;;9.75;;
22737;SDS011;11536;50.860;4.286;2024-02-28T06:37:34;22.75;;;9.77;;
22737;SDS011;11536;50.860;4.286;2024-02-28T06:40:00;24.27;;;10.40;;
22737;SDS011;11536;50.860;4.286;2024-02-28T06:42:26;19.75;;;10.00;;
22737;SDS011;11536;50.860;4.286;2024-02-28T06:44:51;25.08;;;11.25;;
22737;SDS011;11536;50.860;4.286;2024-02-28T06:47:17;20.80;;;10.05;;
22737;SDS011;11536;50.860;4.286;2024-02-28T06:49:45;25.15;;;10.88;;
22737;SDS011;11536;50.860;4.286;2024-02-28T06:52:11;24.85;;;9.82;;
22737;SDS011;11536;50.860;4.286;2024-02-28T06:54:37;22.25;;;9.57;;
22737;SDS011;11536;50.860;4.286;2024-02-28T06:57:02;25.75;;;9.82;;
22737;SDS011;11536;50.860;4.286;2024-02-28T06:59:28;20.73;;;9.48;;
22737;SDS011;11536;50.860;4.286;2024-02-28T07:01:54;21.63;;;9.43;;
22737;SDS011;11536;50.860;4.286;2024-02-28T07:04:19;20.35;;;9.75;;
22737;SDS011;11536;50.860;4.286;2024-02-28T07:06:45;23.30;;;9.75;;
22737;SDS011;11536;50.860;4.286;2024-02-28T07:09:11;22.02;;;10.00;;
22737;SDS011;11536;50.860;4.286;2024-02-28T07:11:37;22.00;;;9.07;;
22737;SDS011;11536;50.860;4.286;2024-02-28T07:14:05;21.35;;;9.30;;
22737;SDS011;11536;50.860;4.286;2024-02-28T07:16:31;18.38;;;8.73;;
22737;SDS011;11536;50.860;4.286;2024-02-28T07:18:59;18.02;;;9.23;;
22737;SDS011;11536;50.860;4.286;2024-02-28T07:21:25;18.05;;;7.88;;
22737;SDS011;11536;50.860;4.286;2024-02-28T07:23:51;22.55;;;8.95;;
22737;SDS011;11536;50.860;4.286;2024-02-28T07:26:16;19.00;;;8.55;;
22737;SDS011;11536;50.860;4.286;2024-02-28T07:28:42;20.40;;;8.70;;
22737;SDS011;11536;50.860;4.286;2024-02-28T07:31:41;18.23;;;8.07;;
22737;SDS011;11536;50.860;4.286;2024-02-28T07:34:00;16.20;;;7.50;;
22737;SDS011;11536;50.860;4.286;2024-02-28T07:36:26;17.85;;;8.63;;
22737;SDS011;11536;50.860;4.286;2024-02-28T07:38:51;18.48;;;7.75;;
22737;SDS011;11536;50.860;4.286;2024-02-28T07:41:18;15.48;;;7.45;;
22737;SDS011;11536;50.860;4.286;2024-02-28T07:43:43;23.40;;;8.90;;
22737;SDS011;11536;50.860;4.286;2024-02-28T07:46:09;21.38;;;8.15;;
22737;SDS011;11536;50.860;4.286;2024-02-28T07:48:36;17.52;;;7.47;;
22737;SDS011;11536;50.860;4.286;2024-02-28T07:51:05;18.20;;;8.27;;
22737;SDS011;11536;50.860;4.286;2024-02-28T07:53:32;16.17;;;7.25;;
22737;SDS011;11536;50.860;4.286;2024-02-28T07:56:01;18.10;;;7.38;;
22737;SDS011;11536;50.860;4.286;2024-02-28T07:58:28;19.05;;;7.82;;
22737;SDS011;11536;50.860;4.286;2024-02-28T08:01:01;17.65;;;8.05;;
22737;SDS011;11536;50.860;4.286;2024-02-28T08:03:30;19.95;;;8.02;;
22737;SDS011;11536;50.860;4.286;2024-02-28T08:05:55;17.13;;;7.65;;
22737;SDS011;11536;50.860;4.286;2024-02-28T08:08:21;14.90;;;7.60;;
22737;SDS011;11536;50.860;4.286;2024-02-28T08:10:46;15.85;;;7.25;;
22737;SDS011;11536;50.860;4.286;2024-02-28T08:13:14;16.60;;;8.25;;
22737;SDS011;11536;50.860;4.286;2024-02-28T08:15:39;19.65;;;7.00;;
22737;SDS011;11536;50.860;4.286;2024-02-28T08:18:05;17.88;;;7.10;;
22737;SDS011;11536;50.860;4.286;2024-02-28T08:20:30;23.33;;;8.13;;
22737;SDS011;11536;50.860;4.286;2024-02-28T08:22:56;15.80;;;6.82;;
22737;SDS011;11536;50.860;4.286;2024-02-28T08:25:23;19.42;;;7.60;;
22737;SDS011;11536;50.860;4.286;2024-02-28T08:27:49;15.05;;;6.80;;
22737;SDS011;11536;50.860;4.286;2024-02-28T08:30:14;22.17;;;8.73;;
22737;SDS011;11536;50.860;4.286;2024-02-28T08:32:41;20.80;;;8.15;;
22737;SDS011;11536;50.860;4.286;2024-02-28T08:35:07;21.77;;;8.15;;
22737;SDS011;11536;50.860;4.286;2024-02-28T08:37:33;22.60;;;7.07;;
22737;SDS011;11536;50.860;4.286;2024-02-28T08:39:59;17.15;;;7.65;;
22737;SDS011;11536;50.860;4.286;2024-02-28T08:42:25;15.48;;;7.70;;
22737;SDS011;11536;50.860;4.286;2024-02-28T08:44:54;18.80;;;7.80;;
22737;SDS011;11536;50.860;4.286;2024-02-28T08:47:24;19.77;;;7.65;;
22737;SDS011;11536;50.860;4.286;2024-02-28T08:49:51;17.63;;;7.95;;
22737;SDS011;11536;50.860;4.286;2024-02-28T08:52:17;22.52;;;8.43;;
22737;SDS011;11536;50.860;4.286;2024-02-28T08:54:43;21.88;;;8.05;;
22737;SDS011;11536;50.860;4.286;2024-02-28T08:57:08;23.08;;;9.18;;
22737;SDS011;11536;50.860;4.286;2024-02-28T08:59:34;21.00;;;8.57;;
22737;SDS011;11536;50.860;4.286;2024-02-28T09:02:00;23.45;;;8.75;;
22737;SDS011;11536;50.860;4.286;2024-02-28T09:04:25;20.67;;;9.00;;
22737;SDS011;11536;50.860;4.286;2024-02-28T09:06:51;21.17;;;8.20;;
22737;SDS011;11536;50.860;4.286;2024-02-28T09:09:18;23.05;;;7.95;;
22737;SDS011;11536;50.860;4.286;2024-02-28T09:11:44;19.20;;;8.30;;
22737;SDS011;11536;50.860;4.286;2024-02-28T09:14:09;17.50;;;7.93;;
22737;SDS011;11536;50.860;4.286;2024-02-28T09:16:35;21.70;;;8.70;;
22737;SDS011;11536;50.860;4.286;2024-02-28T09:19:00;19.42;;;8.15;;
22737;SDS011;11536;50.860;4.286;2024-02-28T09:21:27;21.92;;;8.73;;
22737;SDS011;11536;50.860;4.286;2024-02-28T09:23:54;22.75;;;9.25;;
22737;SDS011;11536;50.860;4.286;2024-02-28T09:26:20;20.65;;;7.95;;
22737;SDS011;11536;50.860;4.286;2024-02-28T09:28:46;17.80;;;8.32;;
22737;SDS011;11536;50.860;4.286;2024-02-28T09:31:11;22.55;;;8.85;;
22737;SDS011;11536;50.860;4.286;2024-02-28T09:33:37;20.50;;;9.27;;
22737;SDS011;11536;50.860;4.286;2024-02-28T09:36:03;22.23;;;8.55;;
22737;SDS011;11536;50.860;4.286;2024-02-28T09:38:29;22.05;;;8.68;;
22737;SDS011;11536;50.860;4.286;2024-02-28T09:40:57;21.80;;;9.25;;
22737;SDS011;11536;50.860;4.286;2024-02-28T09:45:57;22.35;;;9.73;;
22737;SDS011;11536;50.860;4.286;2024-02-28T09:48:30;24.92;;;9.73;;
22737;SDS011;11536;50.860;4.286;2024-02-28T09:50:57;21.85;;;9.43;;
22737;SDS011;11536;50.860;4.286;2024-02-28T09:53:23;22.35;;;9.10;;
22737;SDS011;11536;50.860;4.286;2024-02-28T09:55:52;21.70;;;9.93;;
22737;SDS011;11536;50.860;4.286;2024-02-28T09:58:18;22.05;;;8.75;;
22737;SDS011;11536;50.860;4.286;2024-02-28T10:00:47;20.88;;;8.25;;
22737;SDS011;11536;50.860;4.286;2024-02-28T10:03:13;19.83;;;8.80;;
22737;SDS011;11536;50.860;4.286;2024-02-28T10:05:43;19.08;;;8.93;;
22737;SDS011;11536;50.860;4.286;2024-02-28T10:08:09;22.52;;;9.38;;
22737;SDS011;11536;50.860;4.286;2024-02-28T10:10:36;23.30;;;9.77;;
22737;SDS011;11536;50.860;4.286;2024-02-28T10:13:05;20.63;;;8.63;;
22737;SDS011;11536;50.860;4.286;2024-02-28T10:15:31;21.77;;;9.13;;
22737;SDS011;11536;50.860;4.286;2024-02-28T10:17:56;22.63;;;9.15;;
22737;SDS011;11536;50.860;4.286;2024-02-28T10:20:22;21.67;;;8.48;;
22737;SDS011;11536;50.860;4.286;2024-02-28T10:22:47;19.33;;;8.85;;
22737;SDS011;11536;50.860;4.286;2024-02-28T10:25:13;17.58;;;8.40;;
22737;SDS011;11536;50.860;4.286;2024-02-28T10:27:39;17.17;;;8.35;;
22737;SDS011;11536;50.860;4.286;2024-02-28T10:30:06;18.60;;;8.95;;
22737;SDS011;11536;50.860;4.286;2024-02-28T10:32:32;18.42;;;7.88;;
22737;SDS011;11536;50.860;4.286;2024-02-28T10:35:04;18.55;;;8.82;;
22737;SDS011;11536;50.860;4.286;2024-02-28T10:37:32;19.40;;;8.57;;
22737;SDS011;11536;50.860;4.286;2024-02-28T10:39:57;18.60;;;8.60;;
22737;SDS011;11536;50.860;4.286;2024-02-28T10:42:25;15.88;;;7.20;;
22737;SDS011;11536;50.860;4.286;2024-02-28T10:44:54;19.35;;;7.93;;
22737;SDS011;11536;50.860;4.286;2024-02-28T10:47:23;15.13;;;7.03;;
22737;SDS011;11536;50.860;4.286;2024-02-28T10:49:50;17.30;;;7.43;;
22737;SDS011;11536;50.860;4.286;2024-02-28T10:52:15;14.35;;;6.78;;
22737;SDS011;11536;50.860;4.286;2024-02-28T10:54:46;16.80;;;6.55;;
22737;SDS011;11536;50.860;4.286;2024-02-28T10:57:19;16.45;;;7.50;;
22737;SDS011;11536;50.860;4.286;2024-02-28T10:59:45;15.32;;;6.60;;
22737;SDS011;11536;50.860;4.286;2024-02-28T11:02:11;11.70;;;6.30;;
22737;SDS011;11536;50.860;4.286;2024-02-28T11:04:37;17.25;;;6.50;;
22737;SDS011;11536;50.860;4.286;2024-02-28T11:07:03;15.07;;;6.85;;
22737;SDS011;11536;50.860;4.286;2024-02-28T11:09:30;14.60;;;6.00;;
22737;SDS011;11536;50.860;4.286;2024-02-28T11:11:57;16.08;;;6.18;;
22737;SDS011;11536;50.860;4.286;2024-02-28T11:14:22;13.73;;;6.53;;
22737;SDS011;11536;50.860;4.286;2024-02-28T11:17:03;16.25;;;6.05;;
22737;SDS011;11536;50.860;4.286;2024-02-28T11:19:31;11.70;;;5.60;;
22737;SDS011;11536;50.860;4.286;2024-02-28T11:21:58;12.65;;;5.13;;
22737;SDS011;11536;50.860;4.286;2024-02-28T11:24:28;14.63;;;5.53;;
22737;SDS011;11536;50.860;4.286;2024-02-28T11:26:55;12.13;;;5.55;;
22737;SDS011;11536;50.860;4.286;2024-02-28T11:29:24;13.45;;;5.90;;
22737;SDS011;11536;50.860;4.286;2024-02-28T11:31:51;10.00;;;5.30;;
22737;SDS011;11536;50.860;4.286;2024-02-28T11:34:17;11.98;;;5.35;;
22737;SDS011;11536;50.860;4.286;2024-02-28T11:36:46;12.05;;;4.82;;
22737;SDS011;11536;50.860;4.286;2024-02-28T11:39:13;10.90;;;5.13;;
22737;SDS011;11536;50.860;4.286;2024-02-28T11:41:38;11.05;;;4.97;;
22737;SDS011;11536;50.860;4.286;2024-02-28T11:44:04;13.75;;;4.93;;
22737;SDS011;11536;50.860;4.286;2024-02-28T11:46:30;11.15;;;5.07;;
22737;SDS011;11536;50.860;4.286;2024-02-28T11:48:56;12.63;;;5.03;;
22737;SDS011;11536;50.860;4.286;2024-02-28T11:51:22;12.00;;;4.32;;
22737;SDS011;11536;50.860;4.286;2024-02-28T11:53:48;10.55;;;4.57;;
22737;SDS011;11536;50.860;4.286;2024-02-28T11:56:13;9.10;;;4.07;;
22737;SDS011;11536;50.860;4.286;2024-02-28T11:58:49;10.52;;;4.05;;
22737;SDS011;11536;50.860;4.286;2024-02-28T12:01:18;10.38;;;4.70;;
22737;SDS011;11536;50.860;4.286;2024-02-28T12:04:03;8.30;;;4.10;;
22737;SDS011;11536;50.860;4.286;2024-02-28T12:06:35;11.25;;;3.88;;
22737;SDS011;11536;50.860;4.286;2024-02-28T12:09:03;9.45;;;4.40;;
22737;SDS011;11536;50.860;4.286;2024-02-28T12:11:35;8.95;;;4.25;;
22737;SDS011;11536;50.860;4.286;2024-02-28T12:14:06;10.00;;;3.92;;
22737;SDS011;11536;50.860;4.286;2024-02-28T12:16:34;7.57;;;3.85;;
22737;SDS011;11536;50.860;4.286;2024-02-28T12:19:10;11.57;;;4.65;;
22737;SDS011;11536;50.860;4.286;2024-02-28T12:24:02;10.43;;;4.18;;
22737;SDS011;11536;50.860;4.286;2024-02-28T12:26:29;9.38;;;4.65;;
22737;SDS011;11536;50.860;4.286;2024-02-28T12:28:55;8.88;;;3.72;;
22737;SDS011;11536;50.860;4.286;2024-02-28T12:31:21;8.30;;;4.00;;
22737;SDS011;11536;50.860;4.286;2024-02-28T12:33:46;11.40;;;4.20;;
22737;SDS011;11536;50.860;4.286;2024-02-28T12:36:12;9.82;;;4.18;;
22737;SDS011;11536;50.860;4.286;2024-02-28T12:38:38;10.32;;;4.50;;
22737;SDS011;11536;50.860;4.286;2024-02-28T12:41:06;8.60;;;4.28;;
22737;SDS011;11536;50.860;4.286;2024-02-28T12:43:32;11.48;;;4.60;;
22737;SDS011;11536;50.860;4.286;2024-02-28T12:45:58;9.95;;;4.50;;
22737;SDS011;11536;50.860;4.286;2024-02-28T12:48:24;12.27;;;4.50;;
22737;SDS011;11536;50.860;4.286;2024-02-28T12:50:49;12.00;;;5.05;;
22737;SDS011;11536;50.860;4.286;2024-02-28T12:53:16;10.32;;;4.60;;
22737;SDS011;11536;50.860;4.286;2024-02-28T12:55:41;11.65;;;4.80;;
22737;SDS011;11536;50.860;4.286;2024-02-28T12:58:07;11.77;;;4.95;;
22737;SDS011;11536;50.860;4.286;2024-02-28T13:00:33;10.55;;;4.47;;
22737;SDS011;11536;50.860;4.286;2024-02-28T13:02:58;11.75;;;5.07;;
22737;SDS011;11536;50.860;4.286;2024-02-28T13:05:24;8.80;;;4.95;;
22737;SDS011;11536;50.860;4.286;2024-02-28T13:07:50;9.63;;;4.63;;
22737;SDS011;11536;50.860;4.286;2024-02-28T13:10:17;11.90;;;4.80;;
22737;SDS011;11536;50.860;4.286;2024-02-28T13:12:43;10.63;;;4.88;;
22737;SDS011;11536;50.860;4.286;2024-02-28T13:15:12;10.77;;;4.95;;
22737;SDS011;11536;50.860;4.286;2024-02-28T13:17:38;11.85;;;4.60;;
22737;SDS011;11536;50.860;4.286;2024-02-28T13:20:06;8.90;;;4.60;;
22737;SDS011;11536;50.860;4.286;2024-02-28T13:22:32;10.93;;;4.75;;
22737;SDS011;11536;50.860;4.286;2024-02-28T13:24:58;11.55;;;4.40;;
22737;SDS011;11536;50.860;4.286;2024-02-28T13:27:25;10.75;;;4.60;;
22737;SDS011;11536;50.860;4.286;2024-02-28T13:29:51;10.65;;;4.43;;
22737;SDS011;11536;50.860;4.286;2024-02-28T13:32:16;8.07;;;3.85;;
22737;SDS011;11536;50.860;4.286;2024-02-28T13:34:42;9.73;;;3.78;;
22737;SDS011;11536;50.860;4.286;2024-02-28T13:37:09;9.57;;;4.50;;
22737;SDS011;11536;50.860;4.286;2024-02-28T13:39:37;10.52;;;4.38;;
22737;SDS011;11536;50.860;4.286;2024-02-28T13:42:03;8.98;;;3.88;;
22737;SDS011;11536;50.860;4.286;2024-02-28T13:44:31;11.55;;;3.50;;
22737;SDS011;11536;50.860;4.286;2024-02-28T13:46:59;6.38;;;2.92;;
22737;SDS011;11536;50.860;4.286;2024-02-28T13:49:25;8.02;;;3.63;;
22737;SDS011;11536;50.860;4.286;2024-02-28T13:51:51;7.50;;;3.20;;
22737;SDS011;11536;50.860;4.286;2024-02-28T13:54:17;9.48;;;3.22;;
22737;SDS011;11536;50.860;4.286;2024-02-28T13:56:42;9.55;;;3.67;;
22737;SDS011;11536;50.860;4.286;2024-02-28T13:59:08;7.30;;;3.35;;
22737;SDS011;11536;50.860;4.286;2024-02-28T14:01:34;10.73;;;3.95;;
22737;SDS011;11536;50.860;4.286;2024-02-28T14:04:01;8.45;;;3.90;;
22737;SDS011;11536;50.860;4.286;2024-02-28T14:06:28;9.00;;;3.53;;
22737;SDS011;11536;50.860;4.286;2024-02-28T14:08:54;10.65;;;3.80;;
22737;SDS011;11536;50.860;4.286;2024-02-28T14:11:19;9.48;;;4.18;;
22737;SDS011;11536;50.860;4.286;2024-02-28T14:13:45;7.45;;;3.13;;
22737;SDS011;11536;50.860;4.286;2024-02-28T14:16:11;8.68;;;3.20;;
22737;SDS011;11536;50.860;4.286;2024-02-28T14:18:37;7.78;;;3.13;;
22737;SDS011;11536;50.860;4.286;2024-02-28T14:21:03;8.40;;;3.60;;
22737;SDS011;11536;50.860;4.286;2024-02-28T14:23:29;7.65;;;3.33;;
22737;SDS011;11536;50.860;4.286;2024-02-28T14:25:55;7.38;;;3.47;;
22737;SDS011;11536;50.860;4.286;2024-02-28T14:28:21;8.48;;;3.38;;
22737;SDS011;11536;50.860;4.286;2024-02-28T14:30:50;9.93;;;4.03;;
22737;SDS011;11536;50.860;4.286;2024-02-28T14:33:17;8.70;;;3.35;;
22737;SDS011;11536;50.860;4.286;2024-02-28T14:35:43;8.80;;;4.03;;
22737;SDS011;11536;50.860;4.286;2024-02-28T14:38:09;10.98;;;3.90;;